createdAt,value
2022-08-17T00:04:34.973Z,15.10
2022-08-17T00:14:39.841Z,15.50
2022-08-17T00:24:45.266Z,19.30
2022-08-17T00:35:10.140Z,13.80
2022-08-17T00:45:53.904Z,13.60
2022-08-17T00:56:01.930Z,16.10
2022-08-17T01:06:08.826Z,14.70
2022-08-17T01:16:33.117Z,16.90
2022-08-17T01:26:41.517Z,20.60
2022-08-17T01:47:22.991Z,15.40
2022-08-17T01:57:56.619Z,18.20
2022-08-17T02:18:39.953Z,14.10
2022-08-17T02:29:06.938Z,11.60
2022-08-17T02:39:41.430Z,14.70
2022-08-17T02:49:54.073Z,12.60
2022-08-17T03:00:42.633Z,16.20
2022-08-17T03:11:20.542Z,14.40
2022-08-17T03:22:19.833Z,14.80
2022-08-17T03:33:16.007Z,16.50
2022-08-17T03:44:26.485Z,14.80
2022-08-17T03:54:59.470Z,21.90
2022-08-17T04:05:50.042Z,19.60
2022-08-17T04:16:38.917Z,22.60
2022-08-17T04:26:52.781Z,23.70
2022-08-17T04:37:20.692Z,20.20
2022-08-17T04:47:30.220Z,22.20
2022-08-17T04:57:39.450Z,18.60
2022-08-17T05:07:51.587Z,18.80
2022-08-17T05:17:55.603Z,17.80
2022-08-17T05:27:58.485Z,16.00
2022-08-17T05:38:25.318Z,16.60
2022-08-17T05:48:49.945Z,18.90
2022-08-17T05:59:16.045Z,17.90
2022-08-17T06:10:09.498Z,14.90
2022-08-17T06:20:17.599Z,13.70
2022-08-17T06:30:57.350Z,14.90
2022-08-17T06:41:08.897Z,14.60
2022-08-17T06:51:35.348Z,19.30
2022-08-17T07:01:42.680Z,17.20
2022-08-17T07:12:01.098Z,16.20
2022-08-17T07:22:57.493Z,15.20
2022-08-17T07:33:21.894Z,18.50
2022-08-17T07:43:49.291Z,14.40
2022-08-17T07:54:14.422Z,11.30
2022-08-17T08:15:11.776Z,12.00
2022-08-17T08:25:43.083Z,16.10
2022-08-17T08:35:55.077Z,12.10
2022-08-17T08:46:33.305Z,12.30
2022-08-17T08:57:29.202Z,18.10
2022-08-17T09:08:29.801Z,17.20
2022-08-17T09:18:59.895Z,13.10
2022-08-17T09:29:16.065Z,11.30
2022-08-17T09:39:36.492Z,11.70
2022-08-17T09:50:03.721Z,10.60
2022-08-17T10:00:44.702Z,10.30
2022-08-17T10:11:18.282Z,13.00
2022-08-17T10:22:00.591Z,14.20
2022-08-17T10:32:45.676Z,10.90
2022-08-17T10:43:28.936Z,9.50
2022-08-17T10:53:31.006Z,9.80
2022-08-17T11:03:33.395Z,9.80
2022-08-17T11:14:13.627Z,11.40
2022-08-17T11:24:30.249Z,8.60
2022-08-17T11:34:34.635Z,14.70
2022-08-17T11:45:19.360Z,11.90
2022-08-17T11:56:10.174Z,8.60
2022-08-17T12:06:56.664Z,10.70
2022-08-17T12:17:03.080Z,10.80
2022-08-17T12:27:10.892Z,8.90
2022-08-17T12:37:51.921Z,11.20
2022-08-17T12:48:18.209Z,11.00
2022-08-17T12:58:30.973Z,11.10
2022-08-17T13:08:49.761Z,11.10
2022-08-17T13:19:16.286Z,12.30
2022-08-17T13:29:23.385Z,11.10
2022-08-17T13:49:55.222Z,13.10
2022-08-17T14:00:35.253Z,13.60
2022-08-17T14:10:38.956Z,9.20
2022-08-17T14:20:42.712Z,13.00
2022-08-17T14:31:14.641Z,11.20
2022-08-17T14:42:26.662Z,10.90
2022-08-17T14:53:08.518Z,13.60
2022-08-17T15:03:23.145Z,10.80
2022-08-17T15:13:30.017Z,9.80
2022-08-17T15:23:32.499Z,12.60
2022-08-17T15:33:44.696Z,13.70
2022-08-17T16:06:01.518Z,14.50
2022-08-17T16:16:07.572Z,14.80
2022-08-17T16:26:10.024Z,14.00
2022-08-17T16:47:10.446Z,14.50
2022-08-17T16:57:24.756Z,12.70
2022-08-17T17:07:45.597Z,16.20
2022-08-17T17:18:21.243Z,16.30
2022-08-17T17:29:11.280Z,14.70
2022-08-17T17:39:44.391Z,12.20
2022-08-17T17:50:32.505Z,14.30
2022-08-17T18:01:44.205Z,13.80
2022-08-17T18:12:50.610Z,17.10
2022-08-17T18:22:53.111Z,15.00
2022-08-17T18:33:30.884Z,22.20
2022-08-17T18:43:44.090Z,19.40
2022-08-17T18:54:15.404Z,18.70
2022-08-17T19:04:34.661Z,21.90
2022-08-17T19:14:45.539Z,18.70
2022-08-17T19:25:02.776Z,18.10
2022-08-17T19:35:37.906Z,22.00
2022-08-17T19:57:34.502Z,26.20
2022-08-17T20:08:06.619Z,21.80
2022-08-17T20:18:51.230Z,22.20
2022-08-17T20:40:53.365Z,24.00
2022-08-17T20:51:23.125Z,23.90
2022-08-17T21:01:42.192Z,20.40
2022-08-17T21:12:35.089Z,20.20
2022-08-17T21:23:12.322Z,19.10
2022-08-17T21:33:42.642Z,23.50
2022-08-17T21:43:50.436Z,21.40
2022-08-17T21:54:29.496Z,19.70
2022-08-17T22:05:11.184Z,20.10
2022-08-17T22:15:39.760Z,20.20
2022-08-17T22:26:06.347Z,21.90
2022-08-17T22:36:47.578Z,21.70
2022-08-17T22:47:21.329Z,25.20
2022-08-17T22:57:59.135Z,25.20
2022-08-17T23:08:17.604Z,22.70
2022-08-17T23:18:31.403Z,22.70
2022-08-17T23:28:53.758Z,24.00
2022-08-17T23:39:07.607Z,24.20
2022-08-17T23:49:21.516Z,25.10
2022-08-17T23:59:27.143Z,24.00
